createdAt,value
2019-02-02T00:00:38.422Z,30.67
2019-02-02T00:04:42.609Z,31.57
2019-02-02T00:08:46.726Z,30.73
2019-02-02T00:12:50.918Z,31.30
2019-02-02T00:16:55.510Z,32.27
2019-02-02T00:20:59.694Z,31.20
2019-02-02T00:25:03.997Z,31.60
2019-02-02T00:29:08.111Z,31.50
2019-02-02T00:33:12.273Z,33.10
2019-02-02T00:37:16.491Z,31.83
2019-02-02T00:41:20.687Z,32.97
2019-02-02T00:45:24.882Z,31.77
2019-02-02T00:49:28.990Z,33.30
2019-02-02T00:53:33.162Z,31.23
2019-02-02T00:57:37.387Z,31.77
2019-02-02T01:01:41.547Z,31.43
2019-02-02T01:05:45.759Z,32.47
2019-02-02T01:09:50.018Z,31.77
2019-02-02T01:13:54.209Z,33.60
2019-02-02T01:17:58.491Z,31.10
2019-02-02T01:22:02.691Z,33.00
2019-02-02T01:26:06.974Z,32.50
2019-02-02T01:30:13.353Z,32.57
2019-02-02T01:34:17.493Z,31.93
2019-02-02T01:38:21.624Z,32.20
2019-02-02T01:42:25.818Z,31.73
2019-02-02T01:46:29.942Z,32.53
2019-02-02T01:50:34.131Z,32.30
2019-02-02T01:54:38.609Z,30.90
2019-02-02T01:58:42.910Z,31.43
2019-02-02T02:02:47.102Z,30.80
2019-02-02T02:06:51.290Z,30.13
2019-02-02T02:10:58.174Z,32.60
2019-02-02T02:15:01.386Z,30.23
2019-02-02T02:19:05.502Z,33.17
2019-02-02T02:23:09.694Z,31.77
2019-02-02T02:27:13.895Z,31.33
2019-02-02T02:31:18.156Z,31.23
2019-02-02T02:35:22.360Z,32.17
2019-02-02T02:39:26.544Z,31.10
2019-02-02T02:43:30.739Z,33.67
2019-02-02T02:47:35.049Z,33.67
2019-02-02T02:51:39.235Z,32.47
2019-02-02T02:55:43.422Z,31.50
2019-02-02T02:59:47.538Z,32.47
2019-02-02T03:03:51.806Z,32.40
2019-02-02T03:07:56.230Z,33.83
2019-02-02T03:12:00.351Z,33.17
2019-02-02T03:16:04.556Z,31.83
2019-02-02T03:20:10.207Z,32.30
2019-02-02T03:24:14.387Z,32.73
2019-02-02T03:28:18.619Z,33.20
2019-02-02T03:32:22.819Z,33.17
2019-02-02T03:36:27.010Z,31.83
2019-02-02T03:40:31.207Z,32.50
2019-02-02T03:44:35.494Z,32.77
2019-02-02T03:48:39.694Z,33.70
2019-02-02T03:52:43.885Z,33.13
2019-02-02T03:56:48.179Z,33.43
2019-02-02T04:00:52.437Z,32.70
2019-02-02T04:04:56.622Z,31.87
2019-02-02T04:09:00.813Z,33.90
2019-02-02T04:13:05.028Z,33.00
2019-02-02T04:17:09.193Z,33.57
2019-02-02T04:21:13.394Z,33.20
2019-02-02T04:25:19.952Z,33.60
2019-02-02T04:29:24.257Z,33.57
2019-02-02T04:33:28.441Z,38.13
2019-02-02T04:37:32.607Z,33.90
2019-02-02T04:41:36.806Z,32.67
2019-02-02T04:45:40.930Z,32.40
2019-02-02T04:49:45.118Z,34.97
2019-02-02T04:53:49.303Z,33.60
2019-02-02T04:57:53.587Z,32.80
2019-02-02T05:01:57.781Z,33.37
2019-02-02T05:06:01.930Z,34.93
2019-02-02T05:10:06.730Z,35.73
2019-02-02T05:14:10.866Z,35.37
2019-02-02T05:18:15.169Z,35.03
2019-02-02T05:22:19.347Z,33.93
2019-02-02T05:26:23.539Z,35.63
2019-02-02T05:30:29.489Z,34.57
2019-02-02T05:34:33.670Z,33.93
2019-02-02T05:38:37.842Z,35.10
2019-02-02T05:42:41.959Z,34.40
2019-02-02T05:46:46.149Z,33.50
2019-02-02T05:50:50.346Z,34.07
2019-02-02T05:54:54.529Z,35.77
2019-02-02T05:58:58.694Z,33.33
2019-02-02T06:03:02.894Z,35.30
2019-02-02T06:07:07.087Z,36.30
2019-02-02T06:11:11.279Z,36.80
2019-02-02T06:15:15.497Z,36.13
2019-02-02T06:19:19.666Z,35.33
2019-02-02T06:23:23.851Z,35.13
2019-02-02T06:27:28.077Z,37.47
2019-02-02T06:31:32.354Z,36.23
2019-02-02T06:35:36.537Z,35.77
2019-02-02T06:39:40.698Z,35.33
2019-02-02T06:43:44.883Z,34.10
2019-02-02T06:47:49.199Z,39.27
2019-02-02T06:51:53.395Z,44.67
2019-02-02T06:55:57.587Z,40.47
2019-02-02T07:00:01.763Z,36.27
2019-02-02T07:04:05.967Z,35.30
2019-02-02T07:08:10.270Z,36.17
2019-02-02T07:12:14.641Z,33.67
2019-02-02T07:16:18.954Z,56.37
2019-02-02T07:20:23.721Z,67.63
2019-02-02T07:24:27.922Z,39.20
2019-02-02T07:28:32.107Z,34.50
2019-02-02T07:32:39.251Z,34.00
2019-02-02T07:36:43.474Z,40.77
2019-02-02T07:40:47.665Z,53.67
2019-02-02T07:44:52.411Z,39.23
2019-02-02T07:48:56.603Z,37.87
2019-02-02T07:53:00.794Z,34.77
2019-02-02T07:57:05.028Z,79.63
2019-02-02T08:01:09.302Z,39.93
2019-02-02T08:05:13.689Z,38.83
2019-02-02T08:09:17.883Z,38.60
2019-02-02T08:13:22.130Z,37.53
2019-02-02T08:17:26.314Z,39.93
2019-02-02T08:21:30.487Z,38.83
2019-02-02T08:25:34.715Z,40.03
2019-02-02T08:29:38.903Z,41.70
2019-02-02T08:33:45.309Z,46.60
2019-02-02T08:37:48.938Z,41.23
2019-02-02T08:41:53.102Z,40.23
2019-02-02T08:45:57.298Z,37.80
2019-02-02T08:50:01.580Z,39.13
2019-02-02T08:54:05.783Z,38.27
2019-02-02T08:58:10.078Z,40.07
2019-02-02T09:02:14.194Z,37.47
2019-02-02T09:06:18.514Z,39.50
2019-02-02T09:10:24.699Z,38.43
2019-02-02T09:14:28.868Z,40.17
2019-02-02T09:18:33.065Z,55.37
2019-02-02T09:22:37.238Z,39.47
2019-02-02T09:26:41.439Z,41.00
2019-02-02T09:30:45.636Z,39.60
2019-02-02T09:34:49.835Z,39.77
2019-02-02T09:38:54.023Z,41.07
2019-02-02T09:42:58.200Z,39.40
2019-02-02T09:47:02.391Z,39.83
2019-02-02T09:51:07.153Z,39.87
2019-02-02T09:55:13.554Z,39.30
2019-02-02T09:59:17.727Z,41.47
2019-02-02T10:03:21.922Z,40.50
2019-02-02T10:07:26.140Z,40.20
2019-02-02T10:11:30.327Z,39.13
2019-02-02T10:15:34.630Z,38.63
2019-02-02T10:19:38.806Z,41.50
2019-02-02T10:23:43.008Z,41.83
2019-02-02T10:27:47.194Z,40.10
2019-02-02T10:31:51.385Z,40.97
2019-02-02T10:35:56.362Z,41.73
2019-02-02T10:40:00.636Z,41.53
2019-02-02T10:44:04.746Z,39.87
2019-02-02T10:48:08.943Z,41.97
2019-02-02T10:52:13.131Z,41.83
2019-02-02T10:56:17.355Z,40.87
2019-02-02T11:00:23.754Z,42.03
2019-02-02T11:04:27.964Z,44.40
2019-02-02T11:08:32.204Z,43.43
2019-02-02T11:12:36.567Z,43.37
2019-02-02T11:16:40.921Z,44.50
2019-02-02T11:20:45.122Z,41.37
2019-02-02T11:24:49.523Z,44.60
2019-02-02T11:28:53.709Z,41.70
2019-02-02T11:32:57.938Z,45.27
2019-02-02T11:37:02.134Z,42.70
2019-02-02T11:41:06.350Z,44.60
2019-02-02T11:45:11.147Z,44.43
2019-02-02T11:49:15.407Z,45.10
2019-02-02T11:53:19.749Z,46.23
2019-02-02T11:57:23.986Z,45.23
2019-02-02T12:01:28.175Z,45.67
2019-02-02T12:05:32.469Z,48.50
2019-02-02T12:09:36.657Z,44.50
2019-02-02T12:13:40.898Z,46.67
2019-02-02T12:17:45.093Z,48.43
2019-02-02T12:21:49.286Z,47.77
2019-02-02T12:25:53.467Z,46.47
2019-02-02T12:29:58.168Z,46.70
2019-02-02T12:34:02.364Z,48.73
2019-02-02T12:38:06.642Z,49.57
2019-02-02T12:42:10.834Z,50.90
2019-02-02T12:46:15.018Z,49.27
2019-02-02T12:50:19.210Z,49.43
2019-02-02T12:54:23.395Z,50.47
2019-02-02T12:58:27.586Z,51.80
2019-02-02T13:02:38.127Z,48.97
2019-02-02T13:06:37.626Z,48.57
2019-02-02T13:10:41.815Z,54.53
2019-02-02T13:14:46.030Z,54.83
2019-02-02T13:18:50.225Z,54.80
2019-02-02T13:22:54.343Z,53.70
2019-02-02T13:26:58.506Z,57.57
2019-02-02T13:31:02.697Z,51.37
2019-02-02T13:35:09.711Z,85.63
2019-02-02T13:39:13.898Z,53.67
2019-02-02T13:43:18.106Z,51.23
2019-02-02T13:47:22.282Z,52.20
2019-02-02T13:51:26.474Z,52.57
2019-02-02T13:55:30.611Z,52.63
2019-02-02T13:59:34.804Z,53.40
2019-02-02T14:03:39.017Z,69.77
2019-02-02T14:07:43.235Z,83.10
2019-02-02T14:11:47.426Z,52.57
2019-02-02T14:15:51.646Z,55.33
2019-02-02T14:19:55.865Z,54.20
2019-02-02T14:24:00.153Z,53.83
2019-02-02T14:28:04.666Z,51.60
2019-02-02T14:32:08.875Z,55.87
2019-02-02T14:36:13.074Z,56.73
2019-02-02T14:40:18.319Z,53.80
2019-02-02T14:44:22.519Z,62.77
2019-02-02T14:48:26.703Z,57.10
2019-02-02T14:52:30.906Z,82.03
2019-02-02T14:56:35.046Z,54.53
2019-02-02T15:00:39.242Z,85.80
2019-02-02T15:04:43.446Z,56.50
2019-02-02T15:08:47.831Z,55.17
2019-02-02T15:12:52.317Z,55.43
2019-02-02T15:16:56.515Z,56.63
2019-02-02T15:21:00.734Z,55.33
2019-02-02T15:25:06.218Z,56.30
2019-02-02T15:29:10.322Z,56.10
2019-02-02T15:33:14.522Z,56.93
2019-02-02T15:37:18.711Z,60.47
2019-02-02T15:41:22.897Z,58.93
2019-02-02T15:45:28.146Z,58.33
2019-02-02T15:49:32.256Z,58.97
2019-02-02T15:53:36.452Z,60.40
2019-02-02T15:57:40.654Z,62.87
2019-02-02T16:01:44.773Z,61.33
2019-02-02T16:05:48.898Z,60.67
2019-02-02T16:09:53.070Z,63.57
2019-02-02T16:13:57.283Z,60.23
2019-02-02T16:18:01.566Z,62.57
2019-02-02T16:22:05.815Z,63.50
2019-02-02T16:26:10.027Z,63.70
2019-02-02T16:30:18.508Z,64.20
2019-02-02T16:34:22.716Z,64.63
2019-02-02T16:38:28.202Z,66.23
2019-02-02T16:42:32.323Z,60.33
2019-02-02T16:46:36.539Z,63.90
2019-02-02T16:50:40.703Z,74.83
2019-02-02T16:54:44.990Z,80.17
2019-02-02T16:58:49.219Z,75.97
2019-02-02T17:02:53.687Z,65.00
2019-02-02T17:06:57.869Z,66.00
2019-02-02T17:11:02.043Z,62.23
2019-02-02T17:15:07.039Z,63.87
2019-02-02T17:19:11.234Z,64.47
2019-02-02T17:23:15.350Z,64.20
2019-02-02T17:27:19.542Z,65.10
2019-02-02T17:31:23.801Z,64.37
2019-02-02T17:35:27.990Z,60.00
2019-02-02T17:39:32.118Z,65.40
2019-02-02T17:43:36.318Z,64.53
2019-02-02T17:47:40.601Z,66.07
2019-02-02T17:51:44.859Z,66.87
2019-02-02T17:55:49.174Z,61.83
2019-02-02T17:59:53.354Z,62.67
2019-02-02T18:03:57.626Z,64.27
2019-02-02T18:08:01.822Z,65.03
2019-02-02T18:12:06.010Z,63.30
2019-02-02T18:16:10.227Z,62.43
2019-02-02T18:20:15.703Z,61.63
2019-02-02T18:24:19.938Z,61.80
2019-02-02T18:28:24.162Z,62.70
2019-02-02T18:32:28.434Z,61.20
2019-02-02T18:36:32.621Z,62.57
2019-02-02T18:40:39.877Z,61.77
2019-02-02T18:44:42.642Z,64.07
2019-02-02T18:48:47.253Z,66.87
2019-02-02T18:52:51.594Z,63.90
2019-02-02T18:56:55.799Z,62.80
2019-02-02T19:00:59.979Z,63.73
2019-02-02T19:05:04.579Z,65.37
2019-02-02T19:09:09.222Z,67.23
2019-02-02T19:13:13.430Z,64.13
2019-02-02T19:17:17.626Z,62.80
2019-02-02T19:21:21.846Z,64.43
2019-02-02T19:25:26.243Z,66.03
2019-02-02T19:29:30.435Z,64.77
2019-02-02T19:33:34.597Z,64.30
2019-02-02T19:37:38.858Z,65.27
2019-02-02T19:41:43.876Z,66.13
2019-02-02T19:45:48.051Z,65.37
2019-02-02T19:49:52.250Z,67.57
2019-02-02T19:53:56.458Z,71.20
2019-02-02T19:58:00.708Z,69.30
2019-02-02T20:02:05.033Z,68.70
2019-02-02T20:06:09.226Z,70.40
2019-02-02T20:10:15.239Z,76.37
2019-02-02T20:14:19.479Z,71.23
2019-02-02T20:18:25.153Z,71.20
2019-02-02T20:22:29.463Z,70.67
2019-02-02T20:26:33.654Z,68.17
2019-02-02T20:30:37.770Z,73.00
2019-02-02T20:34:41.983Z,70.20
2019-02-02T20:38:46.171Z,70.30
2019-02-02T20:42:50.618Z,70.27
2019-02-02T20:46:55.136Z,71.53
2019-02-02T20:50:59.647Z,72.40
2019-02-02T20:55:03.961Z,70.03
2019-02-02T20:59:08.190Z,69.93
2019-02-02T21:03:12.448Z,72.83
2019-02-02T21:07:16.867Z,71.33
2019-02-02T21:11:21.095Z,67.97
2019-02-02T21:15:25.427Z,73.17
2019-02-02T21:19:29.677Z,71.50
2019-02-02T21:23:33.876Z,72.40
2019-02-02T21:27:38.130Z,75.40
2019-02-02T21:31:42.325Z,71.93
2019-02-02T21:35:48.796Z,74.77
2019-02-02T21:39:52.713Z,71.87
2019-02-02T21:43:56.950Z,73.83
2019-02-02T21:48:01.154Z,72.80
2019-02-02T21:52:05.650Z,73.13
2019-02-02T21:56:09.838Z,68.73
2019-02-02T22:00:37.180Z,72.20
2019-02-02T22:04:41.603Z,70.13
2019-02-02T22:08:45.807Z,69.80
2019-02-02T22:12:52.641Z,68.90
2019-02-02T22:16:56.262Z,68.23
2019-02-02T22:21:00.481Z,67.80
2019-02-02T22:25:08.298Z,65.90
2019-02-02T22:29:13.954Z,66.10
2019-02-02T22:33:19.841Z,66.03
2019-02-02T22:37:25.688Z,65.97
2019-02-02T22:41:29.945Z,65.70
2019-02-02T22:45:34.141Z,65.30
2019-02-02T22:49:41.490Z,66.23
2019-02-02T22:53:47.381Z,68.37
2019-02-02T22:57:52.270Z,64.50
2019-02-02T23:02:05.619Z,67.17
2019-02-02T23:06:49.932Z,67.00
2019-02-02T23:11:19.440Z,66.00
2019-02-02T23:15:46.511Z,67.03
2019-02-02T23:19:50.866Z,69.80
2019-02-02T23:23:55.471Z,74.13
2019-02-02T23:27:59.700Z,72.30
2019-02-02T23:32:04.310Z,73.03
2019-02-02T23:36:08.518Z,72.87
2019-02-02T23:40:13.510Z,72.27
2019-02-02T23:44:17.721Z,73.70
2019-02-02T23:48:22.003Z,73.90
2019-02-02T23:52:26.194Z,73.37
2019-02-02T23:56:30.399Z,74.40
